Terminal Aerodrome Forecast
Issued by NWS

Home | Current Version | Previous Version | Text Only | Print | Product List | Glossary On
Versions: 1 2 3 4 5 6 7 8 9 10 11 12 13 14 15 16 17 18 19 20 21 22 23 24 25 26 27 28 29 30 31 32 33 34
000
FTUS41 KPBZ 231700 CCA
TAFDUJ
TAF COR
KDUJ 231723Z 2318/2418 06005KT P6SM VCSH SCT025 BKN035
     FM240300 10005KT 4SM BR OVC012
     FM240500 VRB02KT 1/2SM FG OVC002
     FM241400 12005KT P6SM SCT015 BKN025=

USA.gov is the U.S. government's official web portal to all federal, state and local government web resources and services.